Aérodrome :
LOGIN :

S'inscrire | Disclaimer

   EN    FR    IT 

 










Légende :    VFR   VFR Marginal   IFR   IFR Intensif   IFR Très Intensif
Visi : 
Plafond : 
>= 8 km
>= 3000ft
5 à 8 km
1000 à 3000 ft
1500m à 5 km
500 à 1000 ft
800 à 1500m
200 à 500 ft
< 800m
< 200 ft
Symboles :   Orages  Brouillard  Fortes neiges  Fortes précipitations  Vent > 20 kt
SIGMETs :   Divers  Orages  Givrage  Turbulence  Onde Orograph.  Cendres Volcan.







- Altitude de l'aérodrome : 584 ft
- Voir les cartes d'approche


LFPV - Villacoublay Vélizy

DERNIER METAR :
  • 260600Z AUTO 16003KT 9999 NSC 08/06 Q1012

METARs EXPIRÉS :
  • 260530Z AUTO 23003KT 9999 NSC 07/05 Q1012
  • 260500Z AUTO 21003KT CAVOK 06/05 Q1011 TEMPO 3500 BR OVC003
  • 260430Z AUTO 25003KT 210V280 CAVOK 05/05 Q1011 TEMPO 3500 BR OVC003
  • 260400Z AUTO VRB02KT CAVOK 06/05 Q1010 TEMPO 3500 BR OVC003
  • 260330Z AUTO 22003KT 170V240 CAVOK 07/05 Q1010 TEMPO 3500 BR OVC003

TAF TAF LFPV
Valide du 26 à 03h jusqu'au 27 à 03h UTC


260200Z 2603/2703 19008KT CAVOK
TEMPO 2603/2606 3500 BR
PROB30
TEMPO 2603/2606 OVC003
TEMPO 2611/2619 BKN040TCU
PROB40
TEMPO 2612/2619 20015G25KT 4000 SHRA
BECMG 2700/2702 BKN014
Pas de NOTAMs connus pour ce terrain.



MET'MAP, la Météo Aéronautique d'un coup d'oeil ! - Copyright ORBIFLY Décembre 2007 - Disclaimer

ORBIFLY MET'MAP TEAM :

Programmation & Développement : Alexandra Zaïnal
Conception & Développement : Baudouin d'Aumeries
Co-Programmation & Développement : Marc-Olivier Méhu
Soutien technique & logistique : Manuel Goepfert

Contact : metmap@orbifly.com




SOURCES & CREDITS :

   NOAA